createdAt,value
2017-07-28T00:01:47.240Z,10.16
2017-07-28T00:04:15.507Z,11.02
2017-07-28T00:06:43.777Z,10.90
2017-07-28T00:09:12.072Z,10.42
2017-07-28T00:11:41.249Z,10.22
2017-07-28T00:14:08.781Z,9.68
2017-07-28T00:16:37.061Z,10.06
2017-07-28T00:19:05.369Z,11.46
2017-07-28T00:21:34.636Z,10.50
2017-07-28T00:24:02.925Z,11.12
2017-07-28T00:26:31.216Z,10.72
2017-07-28T00:28:59.481Z,10.48
2017-07-28T00:31:27.794Z,10.78
2017-07-28T00:33:56.077Z,11.60
2017-07-28T00:36:24.349Z,10.04
2017-07-28T00:38:52.648Z,9.48
2017-07-28T00:41:21.864Z,8.60
2017-07-28T00:43:50.120Z,9.52
2017-07-28T00:46:18.425Z,9.02
2017-07-28T00:48:46.689Z,9.14
2017-07-28T00:51:15.009Z,9.60
2017-07-28T00:53:43.285Z,8.86
2017-07-28T00:56:11.547Z,8.02
2017-07-28T00:58:39.840Z,8.92
2017-07-28T01:01:08.106Z,8.22
2017-07-28T01:03:36.412Z,7.58
2017-07-28T01:06:03.940Z,7.26
2017-07-28T01:08:32.212Z,7.92
2017-07-28T01:11:00.512Z,8.72
2017-07-28T01:13:28.785Z,7.48
2017-07-28T01:15:57.086Z,6.60
2017-07-28T01:18:25.352Z,5.68
2017-07-28T01:20:53.644Z,7.02
2017-07-28T01:23:21.912Z,7.16
2017-07-28T01:25:50.209Z,6.26
2017-07-28T01:28:18.467Z,7.12
2017-07-28T01:30:46.760Z,6.30
2017-07-28T01:33:15.032Z,7.00
2017-07-28T01:35:43.353Z,6.86
2017-07-28T01:38:11.616Z,7.58
2017-07-28T01:40:39.119Z,6.64
2017-07-28T01:43:07.424Z,6.22
2017-07-28T01:45:34.925Z,6.10
2017-07-28T01:48:03.233Z,5.28
2017-07-28T01:50:31.496Z,6.38
2017-07-28T01:52:59.756Z,6.30
2017-07-28T01:55:28.051Z,7.06
2017-07-28T01:57:56.354Z,5.88
2017-07-28T02:00:24.611Z,5.86
2017-07-28T02:02:52.872Z,5.92
2017-07-28T02:05:21.191Z,5.08
2017-07-28T02:07:49.458Z,5.60
2017-07-28T02:10:17.731Z,4.18
2017-07-28T02:12:46.025Z,5.76
2017-07-28T02:15:14.284Z,5.20
2017-07-28T02:17:42.582Z,5.24
2017-07-28T02:20:10.847Z,4.90
2017-07-28T02:22:39.154Z,4.68
2017-07-28T02:25:07.463Z,5.18
2017-07-28T02:27:35.744Z,5.12
2017-07-28T02:30:04.009Z,6.40
2017-07-28T02:32:32.312Z,5.30
2017-07-28T02:35:00.577Z,5.88
2017-07-28T02:37:28.849Z,4.74
2017-07-28T02:39:57.171Z,4.84
2017-07-28T02:42:25.443Z,7.74
2017-07-28T02:44:53.712Z,5.44
2017-07-28T02:47:22.020Z,4.86
2017-07-28T02:49:50.292Z,5.60
2017-07-28T02:52:18.558Z,4.98
2017-07-28T02:54:46.853Z,6.26
2017-07-28T02:57:15.127Z,5.54
2017-07-28T02:59:43.429Z,5.20
2017-07-28T03:02:11.689Z,5.56
2017-07-28T03:04:39.954Z,5.30
2017-07-28T03:07:08.265Z,4.90
2017-07-28T03:09:36.517Z,4.94
2017-07-28T03:12:04.784Z,5.52
2017-07-28T03:14:33.077Z,5.98
2017-07-28T03:17:00.579Z,4.90
2017-07-28T03:19:28.871Z,4.48
2017-07-28T03:21:57.165Z,5.78
2017-07-28T03:24:24.731Z,5.46
2017-07-28T03:26:53.001Z,4.36
2017-07-28T03:29:21.287Z,6.10
2017-07-28T03:31:49.592Z,4.92
2017-07-28T03:34:17.864Z,5.44
2017-07-28T03:36:46.127Z,5.06
2017-07-28T03:39:14.431Z,6.10
2017-07-28T03:41:42.695Z,5.20
2017-07-28T03:44:10.965Z,4.78
2017-07-28T03:46:39.278Z,4.90
2017-07-28T03:49:07.553Z,5.46
2017-07-28T03:51:35.824Z,6.02
2017-07-28T03:54:04.108Z,5.12
2017-07-28T03:56:32.369Z,4.78
2017-07-28T03:59:00.681Z,4.66
2017-07-28T04:01:28.950Z,5.54
2017-07-28T04:03:57.252Z,4.88
2017-07-28T04:06:25.533Z,4.72
2017-07-28T04:08:53.788Z,5.28
2017-07-28T04:11:22.098Z,4.44
2017-07-28T04:13:50.364Z,6.82
2017-07-28T04:16:18.632Z,7.24
2017-07-28T04:18:46.955Z,5.02
2017-07-28T04:21:14.460Z,5.00
2017-07-28T04:23:42.721Z,5.60
2017-07-28T04:26:11.016Z,5.72
2017-07-28T04:28:39.283Z,4.98
2017-07-28T04:31:07.586Z,6.02
2017-07-28T04:33:35.841Z,5.72
2017-07-28T04:36:04.095Z,5.62
2017-07-28T04:38:32.402Z,6.10
2017-07-28T04:41:00.679Z,6.28
2017-07-28T04:43:28.941Z,5.04
2017-07-28T04:45:57.241Z,5.20
2017-07-28T04:48:25.500Z,5.12
2017-07-28T04:50:53.759Z,5.66
2017-07-28T04:53:22.039Z,5.26
2017-07-28T04:55:50.297Z,4.60
2017-07-28T04:58:18.601Z,5.88
2017-07-28T05:00:46.872Z,4.84
2017-07-28T05:03:15.136Z,4.10
2017-07-28T05:05:43.433Z,5.32
2017-07-28T05:08:11.696Z,4.90
2017-07-28T05:10:39.991Z,5.74
2017-07-28T05:13:08.257Z,5.74
2017-07-28T05:15:36.513Z,5.16
2017-07-28T05:18:04.820Z,5.54
2017-07-28T05:20:33.090Z,5.90
2017-07-28T05:23:01.351Z,4.70
2017-07-28T05:25:29.652Z,5.90
2017-07-28T05:27:57.924Z,5.46
2017-07-28T05:30:26.199Z,7.10
2017-07-28T05:32:54.505Z,5.20
2017-07-28T05:35:22.778Z,5.54
2017-07-28T05:37:51.071Z,5.86
2017-07-28T05:40:19.332Z,5.70
2017-07-28T05:42:47.643Z,5.62
2017-07-28T05:45:15.911Z,5.54
2017-07-28T05:47:44.176Z,5.24
2017-07-28T05:50:12.464Z,4.94
2017-07-28T05:52:40.729Z,6.32
2017-07-28T05:55:09.036Z,5.96
2017-07-28T05:57:37.291Z,5.76
2017-07-28T06:00:05.563Z,4.86
2017-07-28T06:02:33.877Z,6.24
2017-07-28T06:05:02.144Z,7.42
2017-07-28T06:07:30.402Z,6.28
2017-07-28T06:09:58.721Z,7.22
2017-07-28T06:12:26.988Z,5.52
2017-07-28T06:14:55.256Z,4.76
2017-07-28T06:17:23.555Z,6.20
2017-07-28T06:19:51.852Z,5.84
2017-07-28T06:22:20.125Z,5.74
2017-07-28T06:24:48.451Z,5.50
2017-07-28T06:27:16.737Z,6.56
2017-07-28T06:29:45.005Z,5.56
2017-07-28T06:32:13.298Z,5.84
2017-07-28T06:34:41.568Z,6.36
2017-07-28T06:37:09.863Z,5.44
2017-07-28T06:39:38.176Z,6.12
2017-07-28T06:42:06.468Z,7.64
2017-07-28T06:44:34.884Z,5.80
2017-07-28T06:47:03.222Z,6.08
2017-07-28T06:49:31.582Z,4.92
2017-07-28T06:52:00.762Z,6.36
2017-07-28T06:54:29.082Z,5.20
2017-07-28T06:56:57.363Z,6.00
2017-07-28T06:59:25.658Z,5.56
2017-07-28T07:01:53.983Z,5.32
2017-07-28T07:04:22.275Z,5.42
2017-07-28T07:06:50.547Z,5.00
2017-07-28T07:09:18.861Z,5.36
2017-07-28T07:11:47.129Z,5.92
2017-07-28T07:14:15.394Z,5.12
2017-07-28T07:16:43.704Z,5.34
2017-07-28T07:19:11.976Z,5.70
2017-07-28T07:21:40.272Z,5.54
2017-07-28T07:24:08.632Z,5.38
2017-07-28T07:26:36.924Z,4.70
2017-07-28T07:29:05.193Z,4.30
2017-07-28T07:31:33.481Z,5.12
2017-07-28T07:34:01.792Z,5.34
2017-07-28T07:36:30.060Z,5.08
2017-07-28T07:38:58.324Z,4.68
2017-07-28T07:41:26.628Z,4.48
2017-07-28T07:43:54.901Z,4.74
2017-07-28T07:46:23.199Z,4.80
2017-07-28T07:48:51.487Z,4.86
2017-07-28T07:51:19.751Z,4.96
2017-07-28T07:53:48.057Z,5.14
2017-07-28T07:56:16.323Z,5.08
2017-07-28T07:58:44.579Z,6.04
2017-07-28T08:01:12.865Z,5.18
2017-07-28T08:03:41.144Z,5.72
2017-07-28T08:06:09.417Z,6.52
2017-07-28T08:08:36.944Z,6.02
2017-07-28T08:11:05.241Z,4.86
2017-07-28T08:13:33.522Z,5.22
2017-07-28T08:16:01.794Z,5.88
2017-07-28T08:18:30.099Z,5.60
2017-07-28T08:20:58.364Z,4.96
2017-07-28T08:23:26.636Z,6.86
2017-07-28T08:25:54.931Z,5.78
2017-07-28T08:28:23.227Z,6.60
2017-07-28T08:30:51.611Z,6.70
2017-07-28T08:33:19.889Z,5.30
2017-07-28T08:35:48.150Z,5.10
2017-07-28T08:38:16.453Z,5.32
2017-07-28T08:40:45.632Z,5.18
2017-07-28T08:43:13.896Z,4.72
2017-07-28T08:45:42.199Z,4.76
2017-07-28T08:48:10.461Z,5.12
2017-07-28T08:50:38.732Z,5.24
2017-07-28T08:53:07.038Z,5.42
2017-07-28T08:55:35.300Z,4.80
2017-07-28T08:58:03.560Z,4.48
2017-07-28T09:00:31.083Z,5.14
2017-07-28T09:02:59.380Z,4.42
2017-07-28T09:05:27.642Z,4.42
2017-07-28T09:07:55.923Z,4.52
2017-07-28T09:10:24.209Z,4.98
2017-07-28T09:12:52.467Z,5.02
2017-07-28T09:15:20.777Z,3.96
2017-07-28T09:17:49.049Z,4.94
2017-07-28T09:20:16.549Z,4.40
2017-07-28T09:22:44.865Z,4.72
2017-07-28T09:25:13.125Z,5.26
2017-07-28T09:27:41.385Z,4.94
2017-07-28T09:30:09.690Z,4.06
2017-07-28T09:32:37.952Z,4.28
2017-07-28T09:35:06.237Z,3.98
2017-07-28T09:37:34.520Z,4.24
2017-07-28T09:40:02.789Z,4.60
2017-07-28T09:42:31.121Z,4.22
2017-07-28T09:44:59.384Z,4.02
2017-07-28T09:47:27.643Z,4.82
2017-07-28T09:49:55.199Z,4.50
2017-07-28T09:52:23.464Z,4.66
2017-07-28T09:54:51.724Z,4.42
2017-07-28T09:57:20.017Z,4.80
2017-07-28T09:59:48.274Z,4.92
2017-07-28T10:02:16.583Z,4.84
2017-07-28T10:04:44.842Z,4.20
2017-07-28T10:07:13.092Z,4.40
2017-07-28T10:09:41.390Z,4.20
2017-07-28T10:12:09.644Z,3.86
2017-07-28T10:14:37.946Z,4.70
2017-07-28T10:17:06.206Z,4.42
2017-07-28T10:19:34.467Z,3.80
2017-07-28T10:22:02.765Z,4.90
2017-07-28T10:24:31.020Z,4.02
2017-07-28T10:26:59.311Z,3.80
2017-07-28T10:29:27.559Z,3.20
2017-07-28T10:31:55.864Z,4.36
2017-07-28T10:34:24.148Z,3.64
2017-07-28T10:36:52.428Z,4.16
2017-07-28T10:39:20.731Z,5.30
2017-07-28T10:41:48.987Z,4.00
2017-07-28T10:44:17.251Z,3.72
2017-07-28T10:46:45.553Z,3.76
2017-07-28T10:49:13.819Z,4.12
2017-07-28T10:51:42.075Z,4.26
2017-07-28T10:54:10.368Z,3.60
2017-07-28T10:56:38.628Z,3.56
2017-07-28T10:59:06.895Z,4.14
2017-07-28T11:01:35.236Z,3.90
2017-07-28T11:04:03.499Z,4.04
2017-07-28T11:06:31.755Z,4.02
2017-07-28T11:09:00.045Z,4.46
2017-07-28T11:11:28.545Z,3.62
2017-07-28T11:13:56.809Z,4.10
2017-07-28T11:16:25.088Z,3.54
2017-07-28T11:18:53.405Z,4.20
2017-07-28T11:21:21.717Z,3.94
2017-07-28T11:23:49.974Z,3.22
2017-07-28T11:26:18.287Z,3.66
2017-07-28T11:28:46.551Z,3.52
2017-07-28T11:31:14.808Z,4.42
2017-07-28T11:33:43.105Z,3.40
2017-07-28T11:36:11.382Z,3.70
2017-07-28T11:38:39.689Z,3.64
2017-07-28T11:41:07.951Z,5.06
2017-07-28T11:43:36.238Z,3.50
2017-07-28T11:46:04.540Z,4.40
2017-07-28T11:48:32.805Z,3.50
2017-07-28T11:51:01.069Z,3.42
2017-07-28T11:53:29.375Z,4.38
2017-07-28T11:55:57.645Z,3.50
2017-07-28T11:58:25.910Z,3.92
2017-07-28T12:00:54.213Z,3.44
2017-07-28T12:03:22.472Z,3.38
2017-07-28T12:05:49.968Z,3.70
2017-07-28T12:08:18.267Z,4.30
2017-07-28T12:10:46.560Z,3.26
2017-07-28T12:13:14.839Z,3.86
2017-07-28T12:15:43.136Z,3.84
2017-07-28T12:18:11.395Z,3.42
2017-07-28T12:20:39.660Z,2.90
2017-07-28T12:23:07.960Z,3.60
2017-07-28T12:25:36.218Z,3.60
2017-07-28T12:28:04.484Z,3.58
2017-07-28T12:30:32.784Z,3.20
2017-07-28T12:33:01.054Z,3.60
2017-07-28T12:35:29.379Z,3.42
2017-07-28T12:37:57.640Z,3.26
2017-07-28T12:40:25.905Z,3.72
2017-07-28T12:42:54.204Z,4.22
2017-07-28T12:45:22.471Z,3.30
2017-07-28T12:47:50.809Z,4.78
2017-07-28T12:50:19.109Z,3.82
2017-07-28T12:52:47.359Z,3.72
2017-07-28T12:55:15.620Z,3.26
2017-07-28T12:57:43.920Z,3.78
2017-07-28T13:00:11.443Z,3.64
2017-07-28T13:02:39.705Z,3.98
2017-07-28T13:05:08.012Z,3.70
2017-07-28T13:07:36.276Z,3.44
2017-07-28T13:10:04.539Z,3.76
2017-07-28T13:12:32.855Z,3.94
2017-07-28T13:15:01.124Z,3.18
2017-07-28T13:17:29.380Z,4.36
2017-07-28T13:19:57.668Z,3.96
2017-07-28T13:22:25.962Z,3.58
2017-07-28T13:24:53.506Z,4.42
2017-07-28T13:27:21.769Z,3.78
2017-07-28T13:29:50.040Z,4.52
2017-07-28T13:32:18.340Z,3.42
2017-07-28T13:34:46.609Z,3.58
2017-07-28T13:37:14.892Z,3.78
2017-07-28T13:39:43.150Z,3.42
2017-07-28T13:42:11.440Z,3.58
2017-07-28T13:44:39.711Z,3.66
2017-07-28T13:47:07.975Z,4.18
2017-07-28T13:49:36.269Z,3.52
2017-07-28T13:52:04.554Z,4.32
2017-07-28T13:54:32.047Z,3.66
2017-07-28T13:57:00.344Z,3.88
2017-07-28T13:59:28.617Z,4.88
2017-07-28T14:01:56.884Z,4.12
2017-07-28T14:04:25.168Z,3.98
2017-07-28T14:06:53.432Z,3.86
2017-07-28T14:09:21.764Z,3.62
2017-07-28T14:11:50.021Z,4.46
2017-07-28T14:14:18.310Z,3.68
2017-07-28T14:16:46.570Z,3.90
2017-07-28T14:19:14.885Z,3.68
2017-07-28T14:21:43.160Z,3.42
2017-07-28T14:24:11.426Z,3.88
2017-07-28T14:26:39.720Z,4.22
2017-07-28T14:29:08.018Z,4.00
2017-07-28T14:31:36.280Z,3.82
2017-07-28T14:34:04.588Z,3.78
2017-07-28T14:36:32.848Z,4.10
2017-07-28T14:39:01.103Z,3.90
2017-07-28T14:41:29.400Z,3.58
2017-07-28T14:43:57.670Z,3.94
2017-07-28T14:46:25.969Z,3.34
2017-07-28T14:48:53.471Z,3.72
2017-07-28T14:51:21.765Z,3.20
2017-07-28T14:53:50.052Z,3.88
2017-07-28T14:56:18.311Z,3.14
2017-07-28T14:58:45.860Z,3.08
2017-07-28T15:01:14.120Z,3.18
2017-07-28T15:03:42.397Z,3.92
2017-07-28T15:06:10.719Z,4.58
2017-07-28T15:08:38.976Z,4.00
2017-07-28T15:11:06.472Z,3.64
2017-07-28T15:13:34.761Z,4.20
2017-07-28T15:16:03.024Z,3.42
2017-07-28T15:18:31.333Z,3.82
2017-07-28T15:20:59.588Z,3.10
2017-07-28T15:23:27.852Z,3.54
2017-07-28T15:25:55.382Z,3.32
2017-07-28T15:28:23.679Z,3.62
2017-07-28T15:30:51.953Z,3.02
2017-07-28T15:33:20.249Z,3.84
2017-07-28T15:35:48.512Z,4.26
2017-07-28T15:38:16.803Z,3.56
2017-07-28T15:40:45.052Z,3.70
2017-07-28T15:43:13.378Z,3.12
2017-07-28T15:45:41.633Z,3.68
2017-07-28T15:48:09.892Z,4.22
2017-07-28T15:50:38.172Z,3.18
2017-07-28T15:53:06.433Z,3.60
2017-07-28T15:55:34.737Z,4.32
2017-07-28T15:58:03.000Z,3.62
2017-07-28T16:00:31.256Z,3.90
2017-07-28T16:02:59.558Z,3.34
2017-07-28T16:05:27.816Z,3.68
2017-07-28T16:07:55.304Z,3.30
2017-07-28T16:10:23.603Z,3.10
2017-07-28T16:12:51.861Z,4.84
2017-07-28T16:15:20.123Z,3.54
2017-07-28T16:17:48.418Z,2.64
2017-07-28T16:20:16.679Z,2.82
2017-07-28T16:22:44.933Z,3.04
2017-07-28T16:25:13.243Z,3.62
2017-07-28T16:27:40.757Z,2.80
2017-07-28T16:30:08.257Z,3.52
2017-07-28T16:32:36.555Z,3.30
2017-07-28T16:35:04.843Z,3.50
2017-07-28T16:37:34.068Z,3.02
2017-07-28T16:40:02.373Z,3.08
2017-07-28T16:42:30.637Z,3.30
2017-07-28T16:44:58.957Z,2.86
2017-07-28T16:47:26.464Z,3.74
2017-07-28T16:49:54.719Z,3.22
2017-07-28T16:52:23.039Z,4.58
2017-07-28T16:54:51.293Z,2.98
2017-07-28T16:57:19.556Z,3.36
2017-07-28T16:59:47.848Z,3.18
2017-07-28T17:02:16.104Z,3.40
2017-07-28T17:04:44.360Z,3.42
2017-07-28T17:07:12.645Z,3.56
2017-07-28T17:09:40.901Z,4.20
2017-07-28T17:12:09.207Z,3.58
2017-07-28T17:14:37.460Z,3.64
2017-07-28T17:17:05.723Z,3.32
2017-07-28T17:19:34.026Z,3.68
2017-07-28T17:22:02.288Z,3.80
2017-07-28T17:24:30.544Z,3.90
2017-07-28T17:26:58.836Z,3.36
2017-07-28T17:29:27.091Z,3.34
2017-07-28T17:31:55.353Z,3.98
2017-07-28T17:34:23.648Z,3.38
2017-07-28T17:36:51.924Z,3.36
2017-07-28T17:39:20.220Z,3.30
2017-07-28T17:41:48.480Z,3.62
2017-07-28T17:44:16.736Z,3.38
2017-07-28T17:46:45.022Z,3.00
2017-07-28T17:49:13.277Z,3.92
2017-07-28T17:51:41.606Z,3.28
2017-07-28T17:54:09.113Z,3.66
2017-07-28T17:56:36.616Z,3.10
2017-07-28T17:59:04.896Z,3.60
2017-07-28T18:01:33.187Z,3.68
2017-07-28T18:04:01.448Z,3.68
2017-07-28T18:06:28.954Z,3.86
2017-07-28T18:08:57.239Z,3.42
2017-07-28T18:11:24.739Z,3.06
2017-07-28T18:13:53.041Z,3.02
2017-07-28T18:16:21.341Z,4.52
2017-07-28T18:18:49.631Z,3.14
2017-07-28T18:21:17.892Z,3.72
2017-07-28T18:23:46.199Z,3.24
2017-07-28T18:26:14.464Z,3.02
2017-07-28T18:28:42.720Z,3.06
2017-07-28T18:31:10.265Z,4.08
2017-07-28T18:33:38.521Z,3.40
2017-07-28T18:36:06.784Z,3.64
2017-07-28T18:38:35.080Z,3.66
2017-07-28T18:41:03.337Z,3.48
2017-07-28T18:43:31.629Z,4.58
2017-07-28T18:45:59.917Z,4.14
2017-07-28T18:48:28.215Z,4.16
2017-07-28T18:50:56.482Z,3.50
2017-07-28T18:53:24.753Z,4.06
2017-07-28T18:55:53.048Z,3.64
2017-07-28T18:58:21.336Z,4.00
2017-07-28T19:00:49.605Z,4.46
2017-07-28T19:03:17.885Z,5.02
2017-07-28T19:05:46.186Z,3.58
2017-07-28T19:08:14.463Z,3.88
2017-07-28T19:10:42.728Z,3.18
2017-07-28T19:13:11.026Z,3.80
2017-07-28T19:15:39.288Z,4.68
2017-07-28T19:18:07.584Z,3.92
2017-07-28T19:20:35.841Z,4.72
2017-07-28T19:23:04.114Z,4.24
2017-07-28T19:25:32.410Z,4.98
2017-07-28T19:28:00.670Z,5.40
2017-07-28T19:30:28.968Z,4.92
2017-07-28T19:32:57.235Z,5.04
2017-07-28T19:35:25.494Z,5.02
2017-07-28T19:37:53.812Z,4.60
2017-07-28T19:40:22.078Z,5.40
2017-07-28T19:42:50.341Z,4.98
2017-07-28T19:45:18.628Z,4.68
2017-07-28T19:47:46.922Z,5.00
2017-07-28T19:50:15.233Z,5.14
2017-07-28T19:52:43.502Z,5.46
2017-07-28T19:55:11.776Z,4.94
2017-07-28T19:57:40.099Z,5.28
2017-07-28T20:00:08.355Z,5.22
2017-07-28T20:02:36.605Z,4.96
2017-07-28T20:05:04.902Z,5.78
2017-07-28T20:07:33.167Z,5.72
2017-07-28T20:10:01.457Z,5.32
2017-07-28T20:12:29.708Z,5.04
2017-07-28T20:14:57.967Z,5.40
2017-07-28T20:17:26.264Z,5.50
2017-07-28T20:19:54.532Z,4.98
2017-07-28T20:22:22.825Z,5.26
2017-07-28T20:24:51.113Z,5.10
2017-07-28T20:27:19.404Z,5.86
2017-07-28T20:29:47.656Z,4.80
2017-07-28T20:32:15.956Z,5.08
2017-07-28T20:34:44.220Z,5.84
2017-07-28T20:37:12.472Z,5.14
2017-07-28T20:39:40.776Z,5.58
2017-07-28T20:42:09.036Z,5.46
2017-07-28T20:44:37.291Z,5.60
2017-07-28T20:47:05.576Z,5.28
2017-07-28T20:49:33.105Z,5.66
2017-07-28T20:52:01.397Z,5.86
2017-07-28T20:54:29.688Z,6.34
2017-07-28T20:56:57.983Z,6.42
2017-07-28T20:59:26.253Z,5.64
2017-07-28T21:01:54.518Z,5.52
2017-07-28T21:04:22.814Z,5.52
2017-07-28T21:06:51.081Z,5.68
2017-07-28T21:09:19.367Z,5.84
2017-07-28T21:11:47.641Z,6.14
2017-07-28T21:14:18.685Z,5.42
2017-07-28T21:16:46.944Z,5.50
2017-07-28T21:19:15.212Z,6.10
2017-07-28T21:21:43.508Z,5.92
2017-07-28T21:24:11.772Z,6.66
2017-07-28T21:26:40.032Z,5.82
2017-07-28T21:29:08.322Z,7.22
2017-07-28T21:31:36.617Z,6.34
2017-07-28T21:34:04.881Z,6.00
2017-07-28T21:36:33.164Z,5.82
2017-07-28T21:39:01.430Z,6.30
2017-07-28T21:41:28.975Z,5.68
2017-07-28T21:43:57.237Z,7.24
2017-07-28T21:46:25.500Z,6.34
2017-07-28T21:48:53.793Z,6.50
2017-07-28T21:51:21.287Z,6.34
2017-07-28T21:53:49.579Z,6.06
2017-07-28T21:56:17.844Z,6.14
2017-07-28T21:58:46.142Z,5.40
2017-07-28T22:01:14.404Z,6.84
2017-07-28T22:03:42.714Z,6.76
2017-07-28T22:06:10.983Z,6.78
2017-07-28T22:08:39.244Z,6.32
2017-07-28T22:11:07.543Z,6.54
2017-07-28T22:13:35.801Z,6.60
2017-07-28T22:16:04.051Z,6.42
2017-07-28T22:18:32.340Z,6.64
2017-07-28T22:21:00.603Z,6.54
2017-07-28T22:23:28.895Z,7.42
2017-07-28T22:25:57.147Z,6.40
2017-07-28T22:28:25.418Z,6.26
2017-07-28T22:30:53.724Z,8.26
2017-07-28T22:33:22.000Z,7.98
2017-07-28T22:35:50.268Z,6.86
2017-07-28T22:38:18.557Z,7.10
2017-07-28T22:40:46.818Z,6.62
2017-07-28T22:43:15.098Z,6.50
2017-07-28T22:45:42.607Z,6.40
2017-07-28T22:48:10.879Z,6.50
2017-07-28T22:50:38.389Z,6.28
2017-07-28T22:53:06.657Z,6.06
2017-07-28T22:55:34.944Z,6.54
2017-07-28T22:58:03.235Z,7.12
2017-07-28T23:00:31.520Z,6.32
2017-07-28T23:02:59.824Z,6.32
2017-07-28T23:05:28.081Z,6.68
2017-07-28T23:07:56.355Z,6.40
2017-07-28T23:10:24.645Z,6.56
2017-07-28T23:12:52.909Z,6.74
2017-07-28T23:15:21.219Z,6.60
2017-07-28T23:17:49.475Z,7.32
2017-07-28T23:20:17.736Z,6.08
2017-07-28T23:22:46.036Z,5.78
2017-07-28T23:25:14.295Z,6.28
2017-07-28T23:27:42.596Z,6.20
2017-07-28T23:30:10.863Z,6.84
2017-07-28T23:32:39.132Z,7.16
2017-07-28T23:35:07.422Z,7.72
2017-07-28T23:37:35.690Z,7.30
2017-07-28T23:40:04.005Z,7.56
2017-07-28T23:42:32.260Z,6.44
2017-07-28T23:45:00.528Z,6.74
2017-07-28T23:47:28.834Z,7.38
2017-07-28T23:49:57.096Z,7.56
2017-07-28T23:52:25.352Z,8.04
2017-07-28T23:54:53.653Z,6.66
2017-07-28T23:57:21.936Z,7.20
2017-07-28T23:59:50.228Z,7.16
